sensor_id;sensor_type;location;lat;lon;timestamp;pressure;altitude;pressure_sealevel;temperature;humidity
72921;BME280;61064;51.654;5.476;2023-12-20T00:02:21;101648.00;;;6.97;100.00
72921;BME280;61064;51.654;5.476;2023-12-20T00:04:46;101663.00;;;6.96;100.00
72921;BME280;61064;51.654;5.476;2023-12-20T00:07:11;101668.28;;;6.96;100.00
72921;BME280;61064;51.654;5.476;2023-12-20T00:09:37;101660.16;;;6.92;100.00
72921;BME280;61064;51.654;5.476;2023-12-20T00:12:02;101656.47;;;6.87;100.00
72921;BME280;61064;51.654;5.476;2023-12-20T00:14:27;101667.00;;;6.85;100.00
72921;BME280;61064;51.654;5.476;2023-12-20T00:16:53;101670.38;;;6.81;100.00
72921;BME280;61064;51.654;5.476;2023-12-20T00:19:18;101664.09;;;6.78;100.00
72921;BME280;61064;51.654;5.476;2023-12-20T00:21:45;101677.31;;;6.78;100.00
72921;BME280;61064;51.654;5.476;2023-12-20T00:24:10;101672.88;;;6.77;100.00
72921;BME280;61064;51.654;5.476;2023-12-20T00:26:36;101663.81;;;6.70;100.00
72921;BME280;61064;51.654;5.476;2023-12-20T00:29:01;101663.94;;;6.73;100.00
72921;BME280;61064;51.654;5.476;2023-12-20T00:31:26;101653.22;;;6.70;100.00
72921;BME280;61064;51.654;5.476;2023-12-20T00:33:52;101661.16;;;6.70;100.00
72921;BME280;61064;51.654;5.476;2023-12-20T00:36:17;101648.75;;;6.67;100.00
72921;BME280;61064;51.654;5.476;2023-12-20T00:38:42;101642.44;;;6.64;100.00
72921;BME280;61064;51.654;5.476;2023-12-20T00:41:08;101642.22;;;6.58;100.00
72921;BME280;61064;51.654;5.476;2023-12-20T00:43:33;101646.53;;;6.54;100.00
72921;BME280;61064;51.654;5.476;2023-12-20T00:45:58;101650.91;;;6.54;100.00
72921;BME280;61064;51.654;5.476;2023-12-20T00:48:25;101629.53;;;6.48;100.00
72921;BME280;61064;51.654;5.476;2023-12-20T00:50:52;101631.97;;;6.42;100.00
72921;BME280;61064;51.654;5.476;2023-12-20T00:53:17;101638.06;;;6.39;100.00
72921;BME280;61064;51.654;5.476;2023-12-20T00:55:42;101641.53;;;6.38;100.00
72921;BME280;61064;51.654;5.476;2023-12-20T00:58:09;101649.38;;;6.35;100.00
72921;BME280;61064;51.654;5.476;2023-12-20T01:00:34;101650.97;;;6.32;100.00
72921;BME280;61064;51.654;5.476;2023-12-20T01:03:00;101644.69;;;6.28;100.00
72921;BME280;61064;51.654;5.476;2023-12-20T01:05:25;101642.16;;;6.31;100.00
72921;BME280;61064;51.654;5.476;2023-12-20T01:07:50;101657.97;;;6.30;100.00
72921;BME280;61064;51.654;5.476;2023-12-20T01:10:16;101651.59;;;6.24;100.00
72921;BME280;61064;51.654;5.476;2023-12-20T01:12:43;101666.66;;;6.27;100.00
72921;BME280;61064;51.654;5.476;2023-12-20T01:15:08;101654.22;;;6.24;100.00
72921;BME280;61064;51.654;5.476;2023-12-20T01:17:34;101649.91;;;6.26;100.00
72921;BME280;61064;51.654;5.476;2023-12-20T01:19:59;101659.34;;;6.20;100.00
72921;BME280;61064;51.654;5.476;2023-12-20T01:22:25;101658.59;;;6.22;100.00
72921;BME280;61064;51.654;5.476;2023-12-20T01:24:50;101661.16;;;6.21;100.00
72921;BME280;61064;51.654;5.476;2023-12-20T01:27:16;101669.25;;;6.25;100.00
72921;BME280;61064;51.654;5.476;2023-12-20T01:29:41;101668.34;;;6.25;100.00
72921;BME280;61064;51.654;5.476;2023-12-20T01:32:07;101650.59;;;6.21;100.00
72921;BME280;61064;51.654;5.476;2023-12-20T01:34:32;101659.47;;;6.23;100.00
72921;BME280;61064;51.654;5.476;2023-12-20T01:36:57;101670.97;;;6.23;100.00
72921;BME280;61064;51.654;5.476;2023-12-20T01:39:23;101655.88;;;6.21;100.00
72921;BME280;61064;51.654;5.476;2023-12-20T01:41:48;101664.81;;;6.24;100.00
72921;BME280;61064;51.654;5.476;2023-12-20T01:44:13;101667.56;;;6.28;100.00
72921;BME280;61064;51.654;5.476;2023-12-20T01:46:39;101656.03;;;6.25;100.00
72921;BME280;61064;51.654;5.476;2023-12-20T01:49:04;101654.13;;;6.21;100.00
72921;BME280;61064;51.654;5.476;2023-12-20T01:51:30;101657.78;;;6.25;100.00
72921;BME280;61064;51.654;5.476;2023-12-20T01:53:57;101660.19;;;6.19;100.00
72921;BME280;61064;51.654;5.476;2023-12-20T01:56:23;101661.16;;;6.21;100.00
72921;BME280;61064;51.654;5.476;2023-12-20T01:58:48;101656.47;;;6.14;100.00
72921;BME280;61064;51.654;5.476;2023-12-20T02:01:14;101656.44;;;6.12;100.00
72921;BME280;61064;51.654;5.476;2023-12-20T02:03:43;101653.81;;;6.12;100.00
72921;BME280;61064;51.654;5.476;2023-12-20T02:06:09;101650.97;;;6.08;100.00
72921;BME280;61064;51.654;5.476;2023-12-20T02:08:35;101663.34;;;6.09;100.00
72921;BME280;61064;51.654;5.476;2023-12-20T02:11:01;101655.31;;;6.06;100.00
72921;BME280;61064;51.654;5.476;2023-12-20T02:13:26;101658.72;;;6.03;100.00
72921;BME280;61064;51.654;5.476;2023-12-20T02:15:52;101660.38;;;6.00;100.00
72921;BME280;61064;51.654;5.476;2023-12-20T02:18:17;101667.31;;;5.98;100.00
72921;BME280;61064;51.654;5.476;2023-12-20T02:20:43;101657.59;;;5.97;100.00
72921;BME280;61064;51.654;5.476;2023-12-20T02:23:08;101663.66;;;5.94;100.00
72921;BME280;61064;51.654;5.476;2023-12-20T02:25:34;101659.22;;;5.93;100.00
72921;BME280;61064;51.654;5.476;2023-12-20T02:27:59;101652.88;;;5.88;100.00
72921;BME280;61064;51.654;5.476;2023-12-20T02:30:24;101649.47;;;5.91;100.00
72921;BME280;61064;51.654;5.476;2023-12-20T02:32:50;101663.53;;;5.91;100.00
72921;BME280;61064;51.654;5.476;2023-12-20T02:35:16;101655.59;;;5.90;100.00
72921;BME280;61064;51.654;5.476;2023-12-20T02:37:45;101663.53;;;5.91;100.00
72921;BME280;61064;51.654;5.476;2023-12-20T02:40:10;101667.94;;;5.91;100.00
72921;BME280;61064;51.654;5.476;2023-12-20T02:42:36;101651.06;;;5.87;100.00
72921;BME280;61064;51.654;5.476;2023-12-20T02:45:01;101643.91;;;5.84;100.00
72921;BME280;61064;51.654;5.476;2023-12-20T02:47:27;101649.47;;;5.91;100.00
72921;BME280;61064;51.654;5.476;2023-12-20T02:49:52;101659.13;;;5.90;100.00
72921;BME280;61064;51.654;5.476;2023-12-20T02:52:18;101642.94;;;5.82;100.00
72921;BME280;61064;51.654;5.476;2023-12-20T02:54:43;101651.13;;;5.89;100.00
72921;BME280;61064;51.654;5.476;2023-12-20T02:57:09;101648.44;;;5.87;100.00
72921;BME280;61064;51.654;5.476;2023-12-20T02:59:34;101656.41;;;5.89;100.00
72921;BME280;61064;51.654;5.476;2023-12-20T03:01:59;101655.59;;;5.90;100.00
72921;BME280;61064;51.654;5.476;2023-12-20T03:04:24;101650.22;;;5.88;100.00
72921;BME280;61064;51.654;5.476;2023-12-20T03:06:50;101650.13;;;5.86;100.00
72921;BME280;61064;51.654;5.476;2023-12-20T03:09:15;101635.00;;;5.82;100.00
72921;BME280;61064;51.654;5.476;2023-12-20T03:11:41;101644.03;;;5.88;100.00
72921;BME280;61064;51.654;5.476;2023-12-20T03:14:06;101629.84;;;5.85;100.00
72921;BME280;61064;51.654;5.476;2023-12-20T03:16:31;101627.38;;;5.89;100.00
72921;BME280;61064;51.654;5.476;2023-12-20T03:18:58;101633.47;;;5.88;100.00
72921;BME280;61064;51.654;5.476;2023-12-20T03:21:23;101622.91;;;5.88;100.00
72921;BME280;61064;51.654;5.476;2023-12-20T03:23:49;101617.63;;;5.88;100.00
72921;BME280;61064;51.654;5.476;2023-12-20T03:26:14;101615.97;;;5.90;100.00
72921;BME280;61064;51.654;5.476;2023-12-20T03:28:39;101614.00;;;5.85;100.00
72921;BME280;61064;51.654;5.476;2023-12-20T03:31:05;101613.13;;;5.85;100.00
72921;BME280;61064;51.654;5.476;2023-12-20T03:33:30;101626.53;;;5.90;100.00
72921;BME280;61064;51.654;5.476;2023-12-20T03:35:55;101637.09;;;5.90;100.00
72921;BME280;61064;51.654;5.476;2023-12-20T03:38:21;101624.78;;;5.90;100.00
72921;BME280;61064;51.654;5.476;2023-12-20T03:40:49;101617.72;;;5.89;100.00
72921;BME280;61064;51.654;5.476;2023-12-20T03:43:14;101616.22;;;5.97;100.00
72921;BME280;61064;51.654;5.476;2023-12-20T03:45:40;101610.03;;;5.97;100.00
72921;BME280;61064;51.654;5.476;2023-12-20T03:48:05;101614.72;;;6.04;100.00
72921;BME280;61064;51.654;5.476;2023-12-20T03:50:31;101612.91;;;6.03;100.00
72921;BME280;61064;51.654;5.476;2023-12-20T03:52:56;101623.69;;;6.07;100.00
72921;BME280;61064;51.654;5.476;2023-12-20T03:55:22;101615.75;;;6.07;100.00
72921;BME280;61064;51.654;5.476;2023-12-20T03:57:47;101621.13;;;6.10;100.00
72921;BME280;61064;51.654;5.476;2023-12-20T04:00:13;101616.59;;;6.06;100.00
72921;BME280;61064;51.654;5.476;2023-12-20T04:02:39;101620.38;;;6.13;100.00
72921;BME280;61064;51.654;5.476;2023-12-20T04:05:05;101615.13;;;6.14;100.00
72921;BME280;61064;51.654;5.476;2023-12-20T04:07:31;101619.63;;;6.17;100.00
72921;BME280;61064;51.654;5.476;2023-12-20T04:09:56;101623.09;;;6.16;100.00
72921;BME280;61064;51.654;5.476;2023-12-20T04:12:22;101629.34;;;6.18;100.00
72921;BME280;61064;51.654;5.476;2023-12-20T04:14:47;101632.84;;;6.17;100.00
72921;BME280;61064;51.654;5.476;2023-12-20T04:17:12;101626.72;;;6.18;100.00
72921;BME280;61064;51.654;5.476;2023-12-20T04:19:38;101625.00;;;6.20;100.00
72921;BME280;61064;51.654;5.476;2023-12-20T04:22:03;101621.59;;;6.22;100.00
72921;BME280;61064;51.654;5.476;2023-12-20T04:24:29;101624.22;;;6.22;100.00
72921;BME280;61064;51.654;5.476;2023-12-20T04:26:54;101633.16;;;6.26;100.00
72921;BME280;61064;51.654;5.476;2023-12-20T04:29:19;101613.75;;;6.25;100.00
72921;BME280;61064;51.654;5.476;2023-12-20T04:31:45;101617.53;;;6.32;100.00
72921;BME280;61064;51.654;5.476;2023-12-20T04:34:10;101612.38;;;6.35;100.00
72921;BME280;61064;51.654;5.476;2023-12-20T04:36:35;101615.03;;;6.37;100.00
72921;BME280;61064;51.654;5.476;2023-12-20T04:39:01;101613.22;;;6.36;100.00
72921;BME280;61064;51.654;5.476;2023-12-20T04:41:26;101623.13;;;6.41;100.00
72921;BME280;61064;51.654;5.476;2023-12-20T04:43:52;101609.03;;;6.41;100.00
72921;BME280;61064;51.654;5.476;2023-12-20T04:46:18;101601.16;;;6.42;100.00
72921;BME280;61064;51.654;5.476;2023-12-20T04:48:43;101607.41;;;6.44;100.00
72921;BME280;61064;51.654;5.476;2023-12-20T04:51:09;101605.50;;;6.40;100.00
72921;BME280;61064;51.654;5.476;2023-12-20T04:53:34;101624.09;;;6.43;100.00
72921;BME280;61064;51.654;5.476;2023-12-20T04:55:59;101620.47;;;6.41;100.00
72921;BME280;61064;51.654;5.476;2023-12-20T04:58:25;101623.19;;;6.43;100.00
72921;BME280;61064;51.654;5.476;2023-12-20T05:00:50;101618.94;;;6.46;100.00
72921;BME280;61064;51.654;5.476;2023-12-20T05:03:15;101612.78;;;6.47;100.00
72921;BME280;61064;51.654;5.476;2023-12-20T05:05:41;101606.72;;;6.50;100.00
72921;BME280;61064;51.654;5.476;2023-12-20T05:08:06;101592.59;;;6.49;100.00
72921;BME280;61064;51.654;5.476;2023-12-20T05:10:31;101589.94;;;6.49;100.00
72921;BME280;61064;51.654;5.476;2023-12-20T05:12:57;101600.63;;;6.52;100.00
72921;BME280;61064;51.654;5.476;2023-12-20T05:15:22;101598.09;;;6.55;100.00
72921;BME280;61064;51.654;5.476;2023-12-20T05:17:47;101593.09;;;6.63;100.00
72921;BME280;61064;51.654;5.476;2023-12-20T05:20:13;101598.41;;;6.64;100.00
72921;BME280;61064;51.654;5.476;2023-12-20T05:22:38;101596.59;;;6.63;100.00
72921;BME280;61064;51.654;5.476;2023-12-20T05:25:04;101580.78;;;6.65;100.00
72921;BME280;61064;51.654;5.476;2023-12-20T05:27:29;101588.94;;;6.71;100.00
72921;BME280;61064;51.654;5.476;2023-12-20T05:29:55;101591.72;;;6.76;100.00
72921;BME280;61064;51.654;5.476;2023-12-20T05:32:23;101573.97;;;6.72;100.00
72921;BME280;61064;51.654;5.476;2023-12-20T05:34:48;101581.28;;;6.80;100.00
72921;BME280;61064;51.654;5.476;2023-12-20T05:37:14;101572.44;;;6.78;100.00
72921;BME280;61064;51.654;5.476;2023-12-20T05:39:39;101574.25;;;6.81;100.00
72921;BME280;61064;51.654;5.476;2023-12-20T05:42:04;101587.41;;;6.78;100.00
72921;BME280;61064;51.654;5.476;2023-12-20T05:44:30;101591.94;;;6.82;100.00
72921;BME280;61064;51.654;5.476;2023-12-20T05:46:55;101576.69;;;6.75;100.00
72921;BME280;61064;51.654;5.476;2023-12-20T05:49:20;101595.41;;;6.79;100.00
72921;BME280;61064;51.654;5.476;2023-12-20T05:51:47;101597.97;;;6.78;100.00
72921;BME280;61064;51.654;5.476;2023-12-20T05:54:12;101600.63;;;6.78;100.00
72921;BME280;61064;51.654;5.476;2023-12-20T05:56:37;101596.94;;;6.73;100.00
72921;BME280;61064;51.654;5.476;2023-12-20T05:59:03;101612.09;;;6.78;100.00
72921;BME280;61064;51.654;5.476;2023-12-20T06:01:28;101598.59;;;6.71;100.00
72921;BME280;61064;51.654;5.476;2023-12-20T06:03:53;101619.13;;;6.78;100.00
72921;BME280;61064;51.654;5.476;2023-12-20T06:06:19;101619.97;;;6.77;100.00
72921;BME280;61064;51.654;5.476;2023-12-20T06:08:44;101618.31;;;6.80;100.00
72921;BME280;61064;51.654;5.476;2023-12-20T06:11:09;101617.34;;;6.77;100.00
72921;BME280;61064;51.654;5.476;2023-12-20T06:13:35;101626.25;;;6.80;100.00
72921;BME280;61064;51.654;5.476;2023-12-20T06:16:01;101623.63;;;6.80;100.00
72921;BME280;61064;51.654;5.476;2023-12-20T06:18:26;101624.50;;;6.79;100.00
72921;BME280;61064;51.654;5.476;2023-12-20T06:20:51;101620.88;;;6.77;100.00
72921;BME280;61064;51.654;5.476;2023-12-20T06:23:17;101617.34;;;6.77;100.00
72921;BME280;61064;51.654;5.476;2023-12-20T06:25:42;101614.59;;;6.74;100.00
72921;BME280;61064;51.654;5.476;2023-12-20T06:28:07;101611.94;;;6.74;100.00
72921;BME280;61064;51.654;5.476;2023-12-20T06:30:35;101601.03;;;6.64;100.00
72921;BME280;61064;51.654;5.476;2023-12-20T06:33:00;101613.41;;;6.65;100.00
72921;BME280;61064;51.654;5.476;2023-12-20T06:35:26;101625.66;;;6.62;100.00
72921;BME280;61064;51.654;5.476;2023-12-20T06:37:51;101613.00;;;6.53;100.00
72921;BME280;61064;51.654;5.476;2023-12-20T06:40:17;101620.03;;;6.53;100.00
72921;BME280;61064;51.654;5.476;2023-12-20T06:42:42;101619.94;;;6.50;100.00
72921;BME280;61064;51.654;5.476;2023-12-20T06:45:08;101611.84;;;6.45;100.00
72921;BME280;61064;51.654;5.476;2023-12-20T06:47:33;101613.53;;;6.43;100.00
72921;BME280;61064;51.654;5.476;2023-12-20T06:49:59;101624.91;;;6.41;100.00
72921;BME280;61064;51.654;5.476;2023-12-20T06:52:24;101624.00;;;6.40;100.00
72921;BME280;61064;51.654;5.476;2023-12-20T06:54:50;101618.59;;;6.37;100.00
72921;BME280;61064;51.654;5.476;2023-12-20T06:57:17;101620.31;;;6.37;100.00
72921;BME280;61064;51.654;5.476;2023-12-20T06:59:43;101622.06;;;6.36;100.00
72921;BME280;61064;51.654;5.476;2023-12-20T07:02:09;101615.88;;;6.36;100.00
72921;BME280;61064;51.654;5.476;2023-12-20T07:04:39;101602.63;;;6.34;100.00
72921;BME280;61064;51.654;5.476;2023-12-20T07:07:04;101598.06;;;6.30;100.00
72921;BME280;61064;51.654;5.476;2023-12-20T07:09:29;101605.28;;;6.34;100.00
72921;BME280;61064;51.654;5.476;2023-12-20T07:11:55;101599.03;;;6.32;100.00
72921;BME280;61064;51.654;5.476;2023-12-20T07:14:20;101600.00;;;6.34;100.00
72921;BME280;61064;51.654;5.476;2023-12-20T07:16:45;101599.88;;;6.31;100.00
72921;BME280;61064;51.654;5.476;2023-12-20T07:19:11;101598.06;;;6.30;100.00
72921;BME280;61064;51.654;5.476;2023-12-20T07:21:36;101606.94;;;6.32;100.00
72921;BME280;61064;51.654;5.476;2023-12-20T07:24:01;101606.94;;;6.32;100.00
72921;BME280;61064;51.654;5.476;2023-12-20T07:26:26;101601.56;;;6.29;100.00
72921;BME280;61064;51.654;5.476;2023-12-20T07:28:52;101618.50;;;6.34;100.00
72921;BME280;61064;51.654;5.476;2023-12-20T07:31:17;101617.59;;;6.34;100.00
72921;BME280;61064;51.654;5.476;2023-12-20T07:33:43;101603.31;;;6.29;100.00
72921;BME280;61064;51.654;5.476;2023-12-20T07:36:08;101609.66;;;6.34;100.00
72921;BME280;61064;51.654;5.476;2023-12-20T07:38:34;101609.50;;;6.29;100.00
72921;BME280;61064;51.654;5.476;2023-12-20T07:41:00;101602.63;;;6.34;100.00
72921;BME280;61064;51.654;5.476;2023-12-20T07:43:25;101606.94;;;6.32;100.00
72921;BME280;61064;51.654;5.476;2023-12-20T07:45:50;101608.81;;;6.35;100.00
72921;BME280;61064;51.654;5.476;2023-12-20T07:48:16;101607.09;;;6.35;100.00
72921;BME280;61064;51.654;5.476;2023-12-20T07:50:41;101615.88;;;6.36;100.00
72921;BME280;61064;51.654;5.476;2023-12-20T07:53:07;101595.47;;;6.32;100.00
72921;BME280;61064;51.654;5.476;2023-12-20T07:55:33;101603.56;;;6.36;100.00
72921;BME280;61064;51.654;5.476;2023-12-20T07:57:58;101598.41;;;6.39;100.00
72921;BME280;61064;51.654;5.476;2023-12-20T08:00:24;101600.91;;;6.35;100.00
72921;BME280;61064;51.654;5.476;2023-12-20T08:02:49;101612.53;;;6.40;100.00
72921;BME280;61064;51.654;5.476;2023-12-20T08:05:15;101605.50;;;6.40;100.00
72921;BME280;61064;51.654;5.476;2023-12-20T08:07:40;101618.81;;;6.43;100.00
72921;BME280;61064;51.654;5.476;2023-12-20T08:10:06;101608.22;;;6.43;100.00
72921;BME280;61064;51.654;5.476;2023-12-20T08:12:31;101614.47;;;6.45;100.00
72921;BME280;61064;51.654;5.476;2023-12-20T08:14:56;101618.06;;;6.47;100.00
72921;BME280;61064;51.654;5.476;2023-12-20T08:17:22;101608.16;;;6.42;100.00
72921;BME280;61064;51.654;5.476;2023-12-20T08:19:49;101617.28;;;6.50;100.00
72921;BME280;61064;51.654;5.476;2023-12-20T08:22:14;101620.66;;;6.46;100.00
72921;BME280;61064;51.654;5.476;2023-12-20T08:24:40;101638.50;;;6.51;100.00
72921;BME280;61064;51.654;5.476;2023-12-20T08:27:05;101624.22;;;6.46;100.00
72921;BME280;61064;51.654;5.476;2023-12-20T08:29:30;101627.84;;;6.50;100.00
72921;BME280;61064;51.654;5.476;2023-12-20T08:31:56;101616.28;;;6.46;100.00
72921;BME280;61064;51.654;5.476;2023-12-20T08:34:23;101619.88;;;6.48;100.00
72921;BME280;61064;51.654;5.476;2023-12-20T08:36:51;101616.28;;;6.46;100.00
72921;BME280;61064;51.654;5.476;2023-12-20T08:39:17;101628.69;;;6.49;100.00
72921;BME280;61064;51.654;5.476;2023-12-20T08:41:42;101632.41;;;6.54;100.00
72921;BME280;61064;51.654;5.476;2023-12-20T08:44:08;101621.81;;;6.54;100.00
72921;BME280;61064;51.654;5.476;2023-12-20T08:46:34;101617.50;;;6.56;100.00
72921;BME280;61064;51.654;5.476;2023-12-20T08:49:00;101606.94;;;6.56;100.00
72921;BME280;61064;51.654;5.476;2023-12-20T08:51:26;101603.47;;;6.58;100.00
72921;BME280;61064;51.654;5.476;2023-12-20T08:53:51;101591.97;;;6.56;100.00
72921;BME280;61064;51.654;5.476;2023-12-20T08:56:16;101590.38;;;6.61;100.00
72921;BME280;61064;51.654;5.476;2023-12-20T08:58:43;101590.38;;;6.61;100.00
72921;BME280;61064;51.654;5.476;2023-12-20T09:01:08;101587.09;;;6.68;100.00
72921;BME280;61064;51.654;5.476;2023-12-20T09:03:34;101580.09;;;6.71;100.00
72921;BME280;61064;51.654;5.476;2023-12-20T09:05:59;101576.34;;;6.64;100.00
72921;BME280;61064;51.654;5.476;2023-12-20T09:08:25;101587.28;;;6.75;100.00
72921;BME280;61064;51.654;5.476;2023-12-20T09:10:50;101567.63;;;6.66;100.00
72921;BME280;61064;51.654;5.476;2023-12-20T09:13:16;101587.34;;;6.76;100.00
72921;BME280;61064;51.654;5.476;2023-12-20T09:15:41;101594.50;;;6.79;100.00
72921;BME280;61064;51.654;5.476;2023-12-20T09:18:07;101585.75;;;6.81;100.00
72921;BME280;61064;51.654;5.476;2023-12-20T09:20:32;101592.78;;;6.81;100.00
72921;BME280;61064;51.654;5.476;2023-12-20T09:22:58;101591.84;;;6.79;100.00
72921;BME280;61064;51.654;5.476;2023-12-20T09:25:23;101600.00;;;6.86;100.00
72921;BME280;61064;51.654;5.476;2023-12-20T09:27:49;101589.50;;;6.88;100.00
72921;BME280;61064;51.654;5.476;2023-12-20T09:30:14;101584.22;;;6.88;100.00
72921;BME280;61064;51.654;5.476;2023-12-20T09:32:39;101600.19;;;6.91;100.00
72921;BME280;61064;51.654;5.476;2023-12-20T09:35:05;101597.63;;;6.94;100.00
72921;BME280;61064;51.654;5.476;2023-12-20T09:37:31;101592.50;;;6.98;100.00
72921;BME280;61064;51.654;5.476;2023-12-20T09:39:57;101578.47;;;7.01;100.00
72921;BME280;61064;51.654;5.476;2023-12-20T09:42:58;101605.34;;;7.13;100.00
72921;BME280;61064;51.654;5.476;2023-12-20T09:45:25;101588.69;;;7.17;100.00
72921;BME280;61064;51.654;5.476;2023-12-20T09:47:52;101593.16;;;7.18;100.00
72921;BME280;61064;51.654;5.476;2023-12-20T09:50:19;101595.09;;;7.24;100.00
72921;BME280;61064;51.654;5.476;2023-12-20T09:52:46;101584.66;;;7.28;100.00
72921;BME280;61064;51.654;5.476;2023-12-20T09:55:14;101592.66;;;7.31;100.00
72921;BME280;61064;51.654;5.476;2023-12-20T09:57:40;101598.09;;;7.36;100.00
72921;BME280;61064;51.654;5.476;2023-12-20T10:00:06;101585.81;;;7.38;100.00
72921;BME280;61064;51.654;5.476;2023-12-20T10:02:33;101590.34;;;7.40;100.00
72921;BME280;61064;51.654;5.476;2023-12-20T10:05:00;101598.34;;;7.43;100.00
72921;BME280;61064;51.654;5.476;2023-12-20T10:07:25;101599.34;;;7.47;100.00
72921;BME280;61064;51.654;5.476;2023-12-20T10:09:54;101600.34;;;7.50;100.00
72921;BME280;61064;51.654;5.476;2023-12-20T10:12:19;101596.81;;;7.50;100.00
72921;BME280;61064;51.654;5.476;2023-12-20T10:14:44;101585.44;;;7.54;100.00
72921;BME280;61064;51.654;5.476;2023-12-20T10:17:10;101577.44;;;7.52;100.00
72921;BME280;61064;51.654;5.476;2023-12-20T10:19:37;101582.94;;;7.59;100.00
72921;BME280;61064;51.654;5.476;2023-12-20T10:22:04;101588.34;;;7.62;100.00
72921;BME280;61064;51.654;5.476;2023-12-20T10:24:30;101595.50;;;7.66;100.00
72921;BME280;61064;51.654;5.476;2023-12-20T10:27:06;101593.81;;;7.68;100.00
72921;BME280;61064;51.654;5.476;2023-12-20T10:29:33;101583.16;;;7.66;100.00
72921;BME280;61064;51.654;5.476;2023-12-20T10:31:58;101591.34;;;7.74;100.00
72921;BME280;61064;51.654;5.476;2023-12-20T10:34:24;101595.78;;;7.75;100.00
72921;BME280;61064;51.654;5.476;2023-12-20T10:36:49;101592.28;;;7.76;100.00
72921;BME280;61064;51.654;5.476;2023-12-20T10:39:15;101573.72;;;7.74;100.00
72921;BME280;61064;51.654;5.476;2023-12-20T10:41:41;101591.34;;;7.74;100.00
72921;BME280;61064;51.654;5.476;2023-12-20T10:44:08;101568.25;;;7.70;100.00
72921;BME280;61064;51.654;5.476;2023-12-20T10:46:36;101561.25;;;7.72;100.00
72921;BME280;61064;51.654;5.476;2023-12-20T10:49:05;101570.25;;;7.77;100.00
72921;BME280;61064;51.654;5.476;2023-12-20T10:51:32;101567.66;;;7.78;100.00
72921;BME280;61064;51.654;5.476;2023-12-20T10:53:59;101558.69;;;7.75;100.00
72921;BME280;61064;51.654;5.476;2023-12-20T10:56:25;101551.81;;;7.81;100.00
72921;BME280;61064;51.654;5.476;2023-12-20T10:58:56;101551.88;;;7.83;100.00
72921;BME280;61064;51.654;5.476;2023-12-20T11:01:25;101530.69;;;7.83;100.00
72921;BME280;61064;51.654;5.476;2023-12-20T11:03:53;101547.72;;;7.92;100.00
72921;BME280;61064;51.654;5.476;2023-12-20T11:08:56;101560.31;;;8.00;100.00
72921;BME280;61064;51.654;5.476;2023-12-20T11:11:30;101545.25;;;7.99;100.00
72921;BME280;61064;51.654;5.476;2023-12-20T11:14:02;101548.03;;;8.03;100.00
72921;BME280;61064;51.654;5.476;2023-12-20T11:16:31;101553.38;;;8.05;100.00
72921;BME280;61064;51.654;5.476;2023-12-20T11:18:56;101548.19;;;8.08;100.00
72921;BME280;61064;51.654;5.476;2023-12-20T11:21:22;101550.84;;;8.09;100.00
72921;BME280;61064;51.654;5.476;2023-12-20T11:23:47;101541.94;;;8.06;100.00
72921;BME280;61064;51.654;5.476;2023-12-20T11:26:15;101540.19;;;8.06;100.00
72921;BME280;61064;51.654;5.476;2023-12-20T11:28:41;101529.59;;;8.06;100.00
72921;BME280;61064;51.654;5.476;2023-12-20T11:31:06;101542.94;;;8.11;100.00
72921;BME280;61064;51.654;5.476;2023-12-20T11:33:38;101531.34;;;8.06;100.00
72921;BME280;61064;51.654;5.476;2023-12-20T11:36:13;101539.50;;;8.13;100.00
72921;BME280;61064;51.654;5.476;2023-12-20T11:38:38;101521.81;;;8.12;100.00
72921;BME280;61064;51.654;5.476;2023-12-20T11:41:07;101529.75;;;8.12;100.00
72921;BME280;61064;51.654;5.476;2023-12-20T11:43:35;101530.72;;;8.16;100.00
72921;BME280;61064;51.654;5.476;2023-12-20T11:46:08;101523.66;;;8.16;100.00
72921;BME280;61064;51.654;5.476;2023-12-20T11:48:38;101521.03;;;8.16;100.00
72921;BME280;61064;51.654;5.476;2023-12-20T11:51:11;101521.91;;;8.17;100.00
72921;BME280;61064;51.654;5.476;2023-12-20T11:53:36;101511.25;;;8.15;100.00
72921;BME280;61064;51.654;5.476;2023-12-20T11:56:03;101515.59;;;8.12;100.00
72921;BME280;61064;51.654;5.476;2023-12-20T11:58:29;101516.56;;;8.15;100.00
72921;BME280;61064;51.654;5.476;2023-12-20T12:00:55;101513.97;;;8.17;100.00
72921;BME280;61064;51.654;5.476;2023-12-20T12:03:20;101497.06;;;8.12;100.00
72921;BME280;61064;51.654;5.476;2023-12-20T12:05:49;101485.59;;;8.13;100.00
72921;BME280;61064;51.654;5.476;2023-12-20T12:08:16;101491.78;;;8.13;100.00
72921;BME280;61064;51.654;5.476;2023-12-20T12:10:42;101499.69;;;8.12;100.00
72921;BME280;61064;51.654;5.476;2023-12-20T12:13:07;101496.03;;;8.08;100.00
72921;BME280;61064;51.654;5.476;2023-12-20T12:15:33;101493.44;;;8.10;100.00
72921;BME280;61064;51.654;5.476;2023-12-20T12:17:58;101494.44;;;8.13;100.00
72921;BME280;61064;51.654;5.476;2023-12-20T12:20:24;101496.22;;;8.14;100.00
72921;BME280;61064;51.654;5.476;2023-12-20T12:23:00;101496.25;;;8.16;100.00
72921;BME280;61064;51.654;5.476;2023-12-20T12:25:26;101489.16;;;8.15;100.00
72921;BME280;61064;51.654;5.476;2023-12-20T12:27:51;101475.97;;;8.16;100.00
72921;BME280;61064;51.654;5.476;2023-12-20T12:30:17;101478.66;;;8.18;100.00
72921;BME280;61064;51.654;5.476;2023-12-20T12:32:44;101481.38;;;8.21;100.00
72921;BME280;61064;51.654;5.476;2023-12-20T12:35:09;101473.47;;;8.22;100.00
72921;BME280;61064;51.654;5.476;2023-12-20T12:37:40;101465.53;;;8.22;100.00
72921;BME280;61064;51.654;5.476;2023-12-20T12:40:07;101473.53;;;8.25;100.00
72921;BME280;61064;51.654;5.476;2023-12-20T12:42:32;101463.84;;;8.26;100.00
72921;BME280;61064;51.654;5.476;2023-12-20T12:44:58;101467.44;;;8.28;100.00
72921;BME280;61064;51.654;5.476;2023-12-20T12:47:23;101461.31;;;8.30;100.00